createdAt,value
2017-07-29T00:01:04.059Z,74.96
2017-07-29T00:03:31.986Z,74.28
2017-07-29T00:06:00.171Z,74.31
2017-07-29T00:08:28.497Z,74.44
2017-07-29T00:10:56.424Z,74.84
2017-07-29T00:13:25.092Z,74.86
2017-07-29T00:15:52.999Z,74.62
2017-07-29T00:18:20.938Z,74.96
2017-07-29T00:20:49.504Z,74.80
2017-07-29T00:23:17.415Z,74.82
2017-07-29T00:25:45.325Z,75.12
2017-07-29T00:28:13.416Z,74.94
2017-07-29T00:30:41.328Z,74.66
2017-07-29T00:33:09.375Z,74.68
2017-07-29T00:35:37.934Z,75.15
2017-07-29T00:38:05.868Z,75.10
2017-07-29T00:40:33.800Z,75.31
2017-07-29T00:43:02.312Z,75.37
2017-07-29T00:45:30.326Z,75.85
2017-07-29T00:47:58.256Z,75.77
2017-07-29T00:50:26.485Z,75.74
2017-07-29T00:52:54.394Z,75.79
2017-07-29T00:55:23.031Z,75.51
2017-07-29T00:57:51.309Z,75.04
2017-07-29T01:00:19.210Z,75.41
2017-07-29T01:02:47.530Z,75.48
2017-07-29T01:05:15.936Z,75.26
2017-07-29T01:07:44.014Z,75.78
2017-07-29T01:10:11.933Z,75.64
2017-07-29T01:12:40.046Z,75.64
2017-07-29T01:15:07.967Z,75.20
2017-07-29T01:17:35.870Z,74.92
2017-07-29T01:20:03.975Z,74.30
2017-07-29T01:22:32.298Z,74.51
2017-07-29T01:25:00.209Z,73.82
2017-07-29T01:27:28.342Z,73.72
2017-07-29T01:29:56.271Z,73.29
2017-07-29T01:32:24.596Z,72.93
2017-07-29T01:34:52.955Z,73.49
2017-07-29T01:37:20.894Z,74.01
2017-07-29T01:39:49.215Z,73.78
2017-07-29T01:42:17.355Z,73.70
2017-07-29T01:44:45.671Z,74.08
2017-07-29T01:47:13.585Z,73.61
2017-07-29T01:49:41.811Z,72.98
2017-07-29T01:52:09.730Z,72.82
2017-07-29T01:54:37.656Z,72.75
2017-07-29T01:57:05.771Z,73.08
2017-07-29T01:59:33.688Z,73.11
2017-07-29T02:02:01.626Z,72.76
2017-07-29T02:04:29.892Z,72.60
2017-07-29T02:06:58.042Z,72.50
2017-07-29T02:09:25.956Z,72.43
2017-07-29T02:11:54.086Z,72.15
2017-07-29T02:14:22.000Z,72.35
2017-07-29T02:16:49.945Z,72.31
2017-07-29T02:19:18.627Z,71.82
2017-07-29T02:21:46.552Z,71.85
2017-07-29T02:24:14.465Z,71.43
2017-07-29T02:26:42.734Z,71.98
2017-07-29T02:29:10.659Z,71.70
2017-07-29T02:31:38.584Z,71.69
2017-07-29T02:34:07.193Z,71.61
2017-07-29T02:36:35.102Z,71.07
2017-07-29T02:39:03.032Z,71.39
2017-07-29T02:41:31.131Z,71.50
2017-07-29T02:43:59.036Z,71.38
2017-07-29T02:46:26.965Z,71.55
2017-07-29T02:48:55.195Z,71.24
2017-07-29T02:51:23.125Z,70.75
2017-07-29T02:53:51.033Z,70.27
2017-07-29T02:56:19.253Z,70.01
2017-07-29T02:58:47.173Z,70.40
2017-07-29T03:01:15.087Z,71.44
2017-07-29T03:03:43.234Z,71.91
2017-07-29T03:06:11.547Z,71.44
2017-07-29T03:08:39.728Z,71.90
2017-07-29T03:11:07.888Z,71.85
2017-07-29T03:13:35.798Z,71.91
2017-07-29T03:16:03.713Z,72.15
2017-07-29T03:18:32.055Z,71.78
2017-07-29T03:20:59.970Z,71.83
2017-07-29T03:23:27.883Z,72.32
2017-07-29T03:25:56.066Z,72.57
2017-07-29T03:28:23.976Z,71.99
2017-07-29T03:30:51.884Z,71.99
2017-07-29T03:33:20.185Z,71.60
2017-07-29T03:35:48.093Z,72.20
2017-07-29T03:38:16.021Z,71.80
2017-07-29T03:40:44.196Z,71.88
2017-07-29T03:43:12.108Z,72.06
2017-07-29T03:45:40.037Z,72.06
2017-07-29T03:48:08.539Z,71.72
2017-07-29T03:50:36.840Z,71.49
2017-07-29T03:53:04.755Z,71.36
2017-07-29T03:55:33.001Z,71.51
2017-07-29T03:58:00.932Z,71.34
2017-07-29T04:00:29.231Z,70.88
2017-07-29T04:02:57.356Z,71.12
2017-07-29T04:05:25.262Z,70.86
2017-07-29T04:07:53.452Z,70.78
2017-07-29T04:10:21.774Z,70.24
2017-07-29T04:12:50.208Z,69.81
2017-07-29T04:15:18.110Z,70.13
2017-07-29T04:17:46.418Z,69.51
2017-07-29T04:20:14.376Z,70.21
2017-07-29T04:22:42.294Z,71.89
2017-07-29T04:25:10.419Z,70.94
2017-07-29T04:27:38.319Z,72.14
2017-07-29T04:30:06.249Z,71.92
2017-07-29T04:32:34.535Z,71.49
2017-07-29T04:35:02.468Z,71.02
2017-07-29T04:37:30.372Z,70.57
2017-07-29T04:39:58.480Z,70.54
2017-07-29T04:42:26.401Z,70.53
2017-07-29T04:44:54.313Z,70.15
2017-07-29T04:47:22.454Z,69.40
2017-07-29T04:49:50.359Z,68.40
2017-07-29T04:52:18.267Z,67.83
2017-07-29T04:54:46.520Z,67.77
2017-07-29T04:57:14.438Z,67.83
2017-07-29T04:59:42.340Z,67.77
2017-07-29T05:02:10.594Z,67.69
2017-07-29T05:04:38.499Z,68.07
2017-07-29T05:07:06.406Z,68.48
2017-07-29T05:09:34.707Z,68.98
2017-07-29T05:12:03.223Z,69.17
2017-07-29T05:14:31.153Z,69.18
2017-07-29T05:16:59.430Z,69.21
2017-07-29T05:19:27.351Z,69.53
2017-07-29T05:21:55.270Z,69.31
2017-07-29T05:24:23.449Z,69.46
2017-07-29T05:26:51.351Z,70.15
2017-07-29T05:29:19.258Z,69.77
2017-07-29T05:31:47.356Z,70.20
2017-07-29T05:34:15.671Z,70.16
2017-07-29T05:36:43.586Z,70.07
2017-07-29T05:39:11.698Z,69.74
2017-07-29T05:41:40.011Z,69.44
2017-07-29T05:44:07.924Z,68.54
2017-07-29T05:46:36.192Z,67.69
2017-07-29T05:49:04.126Z,67.19
2017-07-29T05:51:32.140Z,67.33
2017-07-29T05:54:00.266Z,67.33
2017-07-29T05:56:28.185Z,68.31
2017-07-29T05:58:56.508Z,68.41
2017-07-29T06:01:24.736Z,68.98
2017-07-29T06:03:52.656Z,68.67
2017-07-29T06:06:20.578Z,68.42
2017-07-29T06:08:48.736Z,67.93
2017-07-29T06:11:16.648Z,67.84
2017-07-29T06:13:44.863Z,67.54
2017-07-29T06:16:13.183Z,67.23
2017-07-29T06:18:41.496Z,66.11
2017-07-29T06:21:09.411Z,66.02
2017-07-29T06:23:37.597Z,65.81
2017-07-29T06:26:05.508Z,64.94
2017-07-29T06:28:33.410Z,65.48
2017-07-29T06:31:01.601Z,66.22
2017-07-29T06:33:29.517Z,66.16
2017-07-29T06:35:57.428Z,64.53
2017-07-29T06:38:25.606Z,58.65
2017-07-29T06:40:53.511Z,54.87
2017-07-29T06:43:21.447Z,56.50
2017-07-29T06:45:49.615Z,57.54
2017-07-29T06:48:17.527Z,58.88
2017-07-29T06:50:45.438Z,59.82
2017-07-29T06:53:13.537Z,60.49
2017-07-29T06:55:41.439Z,60.49
2017-07-29T06:58:09.377Z,61.77
2017-07-29T07:00:37.540Z,61.72
2017-07-29T07:03:05.462Z,62.28
2017-07-29T07:05:33.384Z,62.45
2017-07-29T07:08:01.480Z,63.03
2017-07-29T07:10:29.803Z,62.85
2017-07-29T07:12:57.701Z,63.44
2017-07-29T07:15:26.053Z,63.69
2017-07-29T07:17:53.958Z,64.09
2017-07-29T07:20:21.875Z,64.53
2017-07-29T07:22:49.992Z,64.53
2017-07-29T07:25:17.894Z,63.97
2017-07-29T07:27:45.810Z,64.48
2017-07-29T07:30:14.020Z,64.68
2017-07-29T07:32:42.334Z,64.47
2017-07-29T07:35:10.306Z,64.32
2017-07-29T07:37:38.429Z,64.37
2017-07-29T07:40:06.338Z,64.88
2017-07-29T07:42:34.252Z,64.63
2017-07-29T07:45:02.461Z,64.04
2017-07-29T07:47:30.764Z,64.13
2017-07-29T07:49:58.680Z,63.18
2017-07-29T07:52:26.817Z,63.26
2017-07-29T07:54:54.733Z,62.89
2017-07-29T07:57:22.669Z,62.58
2017-07-29T07:59:50.977Z,61.99
2017-07-29T08:02:18.898Z,61.58
2017-07-29T08:04:46.814Z,61.22
2017-07-29T08:07:14.918Z,59.01
2017-07-29T08:09:43.212Z,57.86
2017-07-29T08:12:11.128Z,56.70
2017-07-29T08:14:39.316Z,55.62
2017-07-29T08:17:07.476Z,54.57
2017-07-29T08:19:35.388Z,52.89
2017-07-29T08:22:03.544Z,52.90
2017-07-29T08:24:31.838Z,52.58
2017-07-29T08:26:59.735Z,50.60
2017-07-29T08:29:27.830Z,49.31
2017-07-29T08:31:55.742Z,46.30
2017-07-29T08:34:24.065Z,44.11
2017-07-29T08:36:51.984Z,39.51
2017-07-29T08:39:20.352Z,36.64
2017-07-29T08:41:48.263Z,34.90
2017-07-29T08:44:16.184Z,32.95
2017-07-29T08:46:44.884Z,30.46
2017-07-29T08:49:13.205Z,29.78
2017-07-29T08:51:41.208Z,30.63
2017-07-29T08:54:09.133Z,31.25
2017-07-29T08:56:37.036Z,30.08
2017-07-29T08:59:04.954Z,28.98
2017-07-29T09:01:32.871Z,28.33
2017-07-29T09:04:01.170Z,27.42
2017-07-29T09:06:29.094Z,27.26
2017-07-29T09:08:57.016Z,27.75
2017-07-29T09:11:24.927Z,28.61
2017-07-29T09:13:53.603Z,28.58
2017-07-29T09:16:21.536Z,26.99
2017-07-29T09:18:49.456Z,26.49
2017-07-29T09:21:17.371Z,27.70
2017-07-29T09:23:45.279Z,26.86
2017-07-29T09:26:13.225Z,26.36
2017-07-29T09:28:41.557Z,25.58
2017-07-29T09:31:09.888Z,26.15
2017-07-29T09:33:38.195Z,27.92
2017-07-29T09:36:06.208Z,29.35
2017-07-29T09:38:34.167Z,28.79
2017-07-29T09:41:02.095Z,29.72
2017-07-29T09:43:30.073Z,30.82
2017-07-29T09:45:57.998Z,32.54
2017-07-29T09:48:26.059Z,33.75
2017-07-29T09:50:53.985Z,34.13
2017-07-29T09:53:21.913Z,32.56
2017-07-29T09:55:50.247Z,31.22
2017-07-29T09:58:18.181Z,31.34
2017-07-29T10:00:46.120Z,34.65
2017-07-29T10:03:14.033Z,34.03
2017-07-29T10:05:41.973Z,32.80
2017-07-29T10:08:10.277Z,28.31
2017-07-29T10:10:38.517Z,27.37
2017-07-29T10:13:06.437Z,26.01
2017-07-29T10:15:34.352Z,23.97
2017-07-29T10:18:02.992Z,24.68
2017-07-29T10:20:30.916Z,25.58
2017-07-29T10:22:59.236Z,25.32
2017-07-29T10:25:27.161Z,24.69
2017-07-29T10:27:55.727Z,26.75
2017-07-29T10:30:23.634Z,29.05
2017-07-29T10:32:51.552Z,29.40
2017-07-29T10:35:19.487Z,29.15
2017-07-29T10:37:47.403Z,29.70
2017-07-29T10:40:15.328Z,30.47
2017-07-29T10:42:43.232Z,30.21
2017-07-29T10:45:11.153Z,29.67
2017-07-29T10:47:39.094Z,29.77
2017-07-29T10:50:07.556Z,31.04
2017-07-29T10:52:35.496Z,31.47
2017-07-29T10:55:03.513Z,32.49
2017-07-29T10:57:31.462Z,33.54
2017-07-29T10:59:59.354Z,34.64
2017-07-29T11:02:27.757Z,35.00
2017-07-29T11:04:55.692Z,35.34
2017-07-29T11:07:23.601Z,35.84
2017-07-29T11:09:51.743Z,35.68
2017-07-29T11:12:20.067Z,36.00
2017-07-29T11:14:47.983Z,36.57
2017-07-29T11:17:15.904Z,37.66
2017-07-29T11:19:43.822Z,37.76
2017-07-29T11:22:11.744Z,37.51
2017-07-29T11:24:39.656Z,38.09
2017-07-29T11:27:07.575Z,37.79
2017-07-29T11:29:35.484Z,37.37
2017-07-29T11:32:04.018Z,36.96
2017-07-29T11:34:31.927Z,36.21
2017-07-29T11:36:59.834Z,35.89
2017-07-29T11:39:28.157Z,35.19
2017-07-29T11:41:56.070Z,34.96
2017-07-29T11:44:23.999Z,35.66
2017-07-29T11:46:51.950Z,35.34
2017-07-29T11:49:19.880Z,35.12
2017-07-29T11:51:47.789Z,35.76
2017-07-29T11:54:15.718Z,35.72
2017-07-29T11:56:44.102Z,36.69
2017-07-29T11:59:12.562Z,37.63
2017-07-29T12:01:40.472Z,37.97
2017-07-29T12:04:08.408Z,38.46
2017-07-29T12:06:36.328Z,38.40
2017-07-29T12:09:04.262Z,37.86
2017-07-29T12:11:32.871Z,38.31
2017-07-29T12:14:00.767Z,38.34
2017-07-29T12:16:28.695Z,37.87
2017-07-29T12:18:56.999Z,37.74
2017-07-29T12:21:24.932Z,37.31
2017-07-29T12:23:53.264Z,37.07
2017-07-29T12:26:21.163Z,37.22
2017-07-29T12:28:49.089Z,37.10
2017-07-29T12:31:17.020Z,37.93
2017-07-29T12:33:45.506Z,38.07
2017-07-29T12:36:13.827Z,38.67
2017-07-29T12:38:41.726Z,39.37
2017-07-29T12:41:09.660Z,40.01
2017-07-29T12:43:37.654Z,40.27
2017-07-29T12:46:05.574Z,39.84
2017-07-29T12:48:33.499Z,39.81
2017-07-29T12:51:01.578Z,39.78
2017-07-29T12:53:29.495Z,39.82
2017-07-29T12:55:57.416Z,40.49
2017-07-29T12:58:25.351Z,40.06
2017-07-29T13:00:53.259Z,40.13
2017-07-29T13:03:21.176Z,39.96
2017-07-29T13:05:49.084Z,39.76
2017-07-29T13:08:17.390Z,39.06
2017-07-29T13:10:45.713Z,39.33
2017-07-29T13:13:14.349Z,39.56
2017-07-29T13:15:42.679Z,39.52
2017-07-29T13:18:10.584Z,39.64
2017-07-29T13:20:38.497Z,39.49
2017-07-29T13:23:06.418Z,39.87
2017-07-29T13:25:34.336Z,40.05
2017-07-29T13:28:02.346Z,40.22
2017-07-29T13:30:30.440Z,39.70
2017-07-29T13:32:58.753Z,39.87
2017-07-29T13:35:26.670Z,39.27
2017-07-29T13:37:54.595Z,39.52
2017-07-29T13:40:22.520Z,40.04
2017-07-29T13:42:50.441Z,40.31
2017-07-29T13:45:18.347Z,40.33
2017-07-29T13:47:46.282Z,40.25
2017-07-29T13:50:14.212Z,40.16
2017-07-29T13:52:42.534Z,40.18
2017-07-29T13:55:10.431Z,40.11
2017-07-29T13:57:38.516Z,40.16
2017-07-29T14:00:06.443Z,40.15
2017-07-29T14:02:34.451Z,40.34
2017-07-29T14:05:02.470Z,40.30
2017-07-29T14:07:30.378Z,40.86
2017-07-29T14:09:58.287Z,40.23
2017-07-29T14:12:26.216Z,40.77
2017-07-29T14:14:54.149Z,40.28
2017-07-29T14:17:22.062Z,40.35
2017-07-29T14:19:50.131Z,40.92
2017-07-29T14:22:18.053Z,41.26
2017-07-29T14:24:46.025Z,41.58
2017-07-29T14:27:14.058Z,40.75
2017-07-29T14:29:42.364Z,40.29
2017-07-29T14:32:10.286Z,41.02
2017-07-29T14:34:38.195Z,41.73
2017-07-29T14:37:06.123Z,41.21
2017-07-29T14:39:34.035Z,41.61
2017-07-29T14:42:01.972Z,41.67
2017-07-29T14:44:29.892Z,42.17
2017-07-29T14:46:58.536Z,42.00
2017-07-29T14:49:26.856Z,41.95
2017-07-29T14:51:54.987Z,41.71
2017-07-29T14:54:23.300Z,40.97
2017-07-29T14:56:51.221Z,41.34
2017-07-29T14:59:19.152Z,41.22
2017-07-29T15:01:47.059Z,41.05
2017-07-29T15:04:15.068Z,41.23
2017-07-29T15:06:42.972Z,40.56
2017-07-29T15:09:11.058Z,40.67
2017-07-29T15:11:38.963Z,40.57
2017-07-29T15:14:07.264Z,40.09
2017-07-29T15:16:35.192Z,40.42
2017-07-29T15:19:03.116Z,40.48
2017-07-29T15:21:31.065Z,40.52
2017-07-29T15:23:59.282Z,41.28
2017-07-29T15:26:27.363Z,40.82
2017-07-29T15:28:55.276Z,41.47
2017-07-29T15:31:23.183Z,41.25
2017-07-29T15:33:51.107Z,41.71
2017-07-29T15:36:19.411Z,41.66
2017-07-29T15:38:47.368Z,40.90
2017-07-29T15:41:15.295Z,40.99
2017-07-29T15:43:43.213Z,41.27
2017-07-29T15:46:11.114Z,41.11
2017-07-29T15:48:39.194Z,41.02
2017-07-29T15:51:07.098Z,41.16
2017-07-29T15:53:36.317Z,41.10
2017-07-29T15:56:04.230Z,41.95
2017-07-29T15:58:33.029Z,42.29
2017-07-29T16:01:00.961Z,42.58
2017-07-29T16:03:28.870Z,42.25
2017-07-29T16:05:56.790Z,43.30
2017-07-29T16:08:24.701Z,43.15
2017-07-29T16:10:52.989Z,43.38
2017-07-29T16:13:20.948Z,43.39
2017-07-29T16:15:48.871Z,43.54
2017-07-29T16:18:16.809Z,43.75
2017-07-29T16:20:45.145Z,44.03
2017-07-29T16:23:13.073Z,43.66
2017-07-29T16:25:41.020Z,44.25
2017-07-29T16:28:10.078Z,43.89
2017-07-29T16:30:38.088Z,44.41
2017-07-29T16:33:06.396Z,43.68
2017-07-29T16:35:34.314Z,43.84
2017-07-29T16:38:02.235Z,44.12
2017-07-29T16:40:30.146Z,43.61
2017-07-29T16:42:58.063Z,43.17
2017-07-29T16:45:26.308Z,43.13
2017-07-29T16:47:54.224Z,42.89
2017-07-29T16:50:22.140Z,43.45
2017-07-29T16:52:50.071Z,44.07
2017-07-29T16:55:17.977Z,44.28
2017-07-29T16:57:46.392Z,44.54
2017-07-29T17:00:14.299Z,44.75
2017-07-29T17:02:42.226Z,45.12
2017-07-29T17:05:10.139Z,45.03
2017-07-29T17:07:38.066Z,45.62
2017-07-29T17:10:06.014Z,45.94
2017-07-29T17:12:33.922Z,46.27
2017-07-29T17:15:01.935Z,46.48
2017-07-29T17:17:29.859Z,46.12
2017-07-29T17:19:57.766Z,46.02
2017-07-29T17:22:25.761Z,46.50
2017-07-29T17:24:54.065Z,46.88
2017-07-29T17:27:21.986Z,46.93
2017-07-29T17:29:49.916Z,46.74
2017-07-29T17:32:18.031Z,46.33
2017-07-29T17:34:45.944Z,46.03
2017-07-29T17:37:13.847Z,46.26
2017-07-29T17:39:41.775Z,46.34
2017-07-29T17:42:09.677Z,46.68
2017-07-29T17:44:37.599Z,47.05
2017-07-29T17:47:05.916Z,46.89
2017-07-29T17:49:33.843Z,46.69
2017-07-29T17:52:02.160Z,46.76
2017-07-29T17:54:30.316Z,46.83
2017-07-29T17:56:58.223Z,46.81
2017-07-29T17:59:26.335Z,46.69
2017-07-29T18:01:54.647Z,46.85
2017-07-29T18:04:22.571Z,47.56
2017-07-29T18:06:50.492Z,47.64
2017-07-29T18:09:18.388Z,47.41
2017-07-29T18:11:46.339Z,47.21
2017-07-29T18:14:14.246Z,47.50
2017-07-29T18:16:42.178Z,47.85
2017-07-29T18:19:10.115Z,48.10
2017-07-29T18:21:38.057Z,48.18
2017-07-29T18:24:05.958Z,47.78
2017-07-29T18:26:33.870Z,48.60
2017-07-29T18:29:02.097Z,48.82
2017-07-29T18:31:30.348Z,48.82
2017-07-29T18:33:58.655Z,48.94
2017-07-29T18:36:26.572Z,49.30
2017-07-29T18:38:54.536Z,49.20
2017-07-29T18:41:22.492Z,49.47
2017-07-29T18:43:50.463Z,49.38
2017-07-29T18:46:18.428Z,49.63
2017-07-29T18:48:46.365Z,49.40
2017-07-29T18:51:14.685Z,49.93
2017-07-29T18:53:42.602Z,49.81
2017-07-29T18:56:10.945Z,50.21
2017-07-29T18:58:38.863Z,50.11
2017-07-29T19:01:06.850Z,50.34
2017-07-29T19:03:34.767Z,50.70
2017-07-29T19:06:02.685Z,50.91
2017-07-29T19:08:30.615Z,50.65
2017-07-29T19:10:58.545Z,51.08
2017-07-29T19:13:26.477Z,51.08
2017-07-29T19:15:54.411Z,51.35
2017-07-29T19:18:22.326Z,51.41
2017-07-29T19:20:50.237Z,52.47
2017-07-29T19:23:18.157Z,51.90
2017-07-29T19:25:46.073Z,51.74
2017-07-29T19:28:14.015Z,52.13
2017-07-29T19:30:42.060Z,52.18
2017-07-29T19:33:10.389Z,52.65
2017-07-29T19:35:38.320Z,52.98
2017-07-29T19:38:06.267Z,52.81
2017-07-29T19:40:34.588Z,52.68
2017-07-29T19:43:02.513Z,52.89
2017-07-29T19:45:30.444Z,52.90
2017-07-29T19:47:58.353Z,52.60
2017-07-29T19:50:26.673Z,52.58
2017-07-29T19:52:54.609Z,52.55
2017-07-29T19:55:23.381Z,52.71
2017-07-29T19:57:51.710Z,52.98
2017-07-29T20:00:19.729Z,53.86
2017-07-29T20:02:48.056Z,53.85
2017-07-29T20:05:15.973Z,54.17
2017-07-29T20:07:44.306Z,54.48
2017-07-29T20:10:12.232Z,54.57
2017-07-29T20:12:40.642Z,54.74
2017-07-29T20:15:08.673Z,54.78
2017-07-29T20:17:37.355Z,54.91
2017-07-29T20:20:05.290Z,55.09
2017-07-29T20:22:33.296Z,55.26
2017-07-29T20:25:01.223Z,55.53
2017-07-29T20:27:29.147Z,56.32
2017-07-29T20:29:57.079Z,57.17
2017-07-29T20:32:24.995Z,58.32
2017-07-29T20:34:53.323Z,58.38
2017-07-29T20:37:21.250Z,58.36
2017-07-29T20:39:49.381Z,58.32
2017-07-29T20:42:17.307Z,58.60
2017-07-29T20:44:45.215Z,58.86
2017-07-29T20:47:13.160Z,58.78
2017-07-29T20:49:41.069Z,59.53
2017-07-29T20:52:09.001Z,59.66
2017-07-29T20:54:36.912Z,59.95
2017-07-29T20:57:05.242Z,60.41
2017-07-29T20:59:33.161Z,60.68
2017-07-29T21:02:01.840Z,60.60
2017-07-29T21:04:29.983Z,61.42
2017-07-29T21:06:57.905Z,61.19
2017-07-29T21:09:26.222Z,61.67
2017-07-29T21:11:54.140Z,61.62
2017-07-29T21:14:22.496Z,61.38
2017-07-29T21:16:50.415Z,62.40
2017-07-29T21:19:18.650Z,62.53
2017-07-29T21:21:46.558Z,62.58
2017-07-29T21:24:14.477Z,62.85
2017-07-29T21:26:42.403Z,63.24
2017-07-29T21:29:10.315Z,63.25
2017-07-29T21:31:38.263Z,63.64
2017-07-29T21:34:06.182Z,64.22
2017-07-29T21:36:34.515Z,64.32
2017-07-29T21:39:02.429Z,64.77
2017-07-29T21:41:30.900Z,64.49
2017-07-29T21:43:58.808Z,65.01
2017-07-29T21:46:26.724Z,64.94
2017-07-29T21:48:54.646Z,65.37
2017-07-29T21:51:22.579Z,65.47
2017-07-29T21:53:50.891Z,65.66
2017-07-29T21:56:18.810Z,65.83
2017-07-29T21:58:46.724Z,65.97
2017-07-29T22:01:14.638Z,65.74
2017-07-29T22:03:42.729Z,65.69
2017-07-29T22:06:10.640Z,66.13
2017-07-29T22:08:38.558Z,65.80
2017-07-29T22:11:06.523Z,66.54
2017-07-29T22:13:34.442Z,66.33
2017-07-29T22:16:02.374Z,66.23
2017-07-29T22:18:30.281Z,66.44
2017-07-29T22:20:58.415Z,66.49
2017-07-29T22:23:26.340Z,66.20
2017-07-29T22:25:54.253Z,66.62
2017-07-29T22:28:22.176Z,66.68
2017-07-29T22:30:50.101Z,66.92
2017-07-29T22:33:18.426Z,67.36
2017-07-29T22:35:46.362Z,67.70
2017-07-29T22:38:14.811Z,67.47
2017-07-29T22:40:42.729Z,68.03
2017-07-29T22:43:10.631Z,67.87
2017-07-29T22:45:38.565Z,68.12
2017-07-29T22:48:06.481Z,68.46
2017-07-29T22:50:34.576Z,68.79
2017-07-29T22:53:02.898Z,68.74
2017-07-29T22:55:30.811Z,69.06
2017-07-29T22:57:58.736Z,69.29
2017-07-29T23:00:26.644Z,69.43
2017-07-29T23:02:54.579Z,69.71
2017-07-29T23:05:22.492Z,69.44
2017-07-29T23:07:50.421Z,69.11
2017-07-29T23:10:18.354Z,69.27
2017-07-29T23:12:46.275Z,69.48
2017-07-29T23:15:14.215Z,69.43
2017-07-29T23:17:42.141Z,69.45
2017-07-29T23:20:10.469Z,69.83
2017-07-29T23:22:38.413Z,69.99
2017-07-29T23:25:06.328Z,69.96
2017-07-29T23:27:34.429Z,69.96
2017-07-29T23:30:02.344Z,69.86
2017-07-29T23:32:30.280Z,69.79
2017-07-29T23:34:58.608Z,69.70
2017-07-29T23:37:26.515Z,69.75
2017-07-29T23:39:54.851Z,69.64
2017-07-29T23:42:22.773Z,69.98
2017-07-29T23:44:51.204Z,70.16
2017-07-29T23:47:19.117Z,70.46
2017-07-29T23:49:47.417Z,70.57
2017-07-29T23:52:15.345Z,70.45
2017-07-29T23:54:43.259Z,70.53
2017-07-29T23:57:11.184Z,70.09
2017-07-29T23:59:39.092Z,70.40
